Time;durP1;ratioP1;P1;durP2;ratioP2;P2;SDS_P1;SDS_P2;PMS_P1;PMS_P2;Temp;Humidity;BMP_temperature;BMP_pressure;BME280_temperature;BME280_humidity;BME280_pressure;Samples;Min_cycle;Max_cycle;Signal;HPM_P1;HPM_P2
2023/10/19 00:08:42;;;;;;;;;;;11.60;99.90;;;;;;8420163;28;20284;-69
2023/10/19 00:12:43;;;;;;;;;;;11.60;99.90;;;;;;8421609;28;20432;-69
2023/10/19 00:16:52;;;;;;;;;;;11.70;99.90;;;;;;8425971;28;19985;-69
2023/10/19 00:24:58;;;;;;;;;;;11.80;99.90;;;;;;8422391;28;19973;-70
2023/10/19 00:29:05;;;;;;;;;;;11.80;99.90;;;;;;8405644;28;19924;-70
2023/10/19 00:33:16;;;;;;;;;;;11.80;99.90;;;;;;8417194;28;19977;-69
2023/10/19 00:37:20;;;;;;;;;;;11.90;99.90;;;;;;8420127;28;19924;-69
2023/10/19 00:55:33;;;;;;;;;;;12.00;99.90;;;;;;8415581;28;19925;-69
2023/10/19 00:59:43;;;;;;;;;;;12.00;99.90;;;;;;8405484;28;19946;-69
2023/10/19 01:03:45;;;;;;;;;;;12.00;99.90;;;;;;8419171;28;19977;-69
2023/10/19 01:07:53;;;;;;;;;;;12.10;99.90;;;;;;8424623;28;19931;-69
2023/10/19 01:11:54;;;;;;;;;;;12.10;99.90;;;;;;8385228;28;20303;-69
2023/10/19 01:15:58;;;;;;;;;;;12.10;99.90;;;;;;8426076;28;19924;-69
2023/10/19 01:20:00;;;;;;;;;;;12.20;99.90;;;;;;8420527;28;19931;-69
2023/10/19 01:24:07;;;;;;;;;;;12.20;99.90;;;;;;8425205;28;19986;-69
2023/10/19 01:28:10;;;;;;;;;;;12.20;99.90;;;;;;8409427;28;19932;-69
2023/10/19 01:32:15;;;;;;;;;;;12.20;99.90;;;;;;8418339;28;19932;-69
2023/10/19 01:50:32;;;;;;;;;;;12.40;99.90;;;;;;8419909;28;19919;-70
2023/10/19 01:54:37;;;;;;;;;;;12.50;99.90;;;;;;8416018;28;20343;-69
2023/10/19 02:13:51;;;;;;;;;;;12.70;99.90;;;;;;8400642;28;19923;-70
2023/10/19 02:17:55;;;;;;;;;;;12.80;99.90;;;;;;8402974;28;20015;-70
2023/10/19 02:22:03;;;;;;;;;;;12.90;99.90;;;;;;8410332;28;19968;-70
2023/10/19 02:26:05;;;;;;;;;;;13.00;99.90;;;;;;8420872;28;19928;-69
2023/10/19 02:30:07;;;;;;;;;;;13.00;99.90;;;;;;8413685;28;19975;-70
2023/10/19 02:34:10;;;;;;;;;;;13.10;99.90;;;;;;8422738;28;20390;-70
2023/10/19 02:38:12;;;;;;;;;;;13.20;99.90;;;;;;8403500;28;19925;-70
2023/10/19 02:57:47;;;;;;;;;;;13.40;99.90;;;;;;8414734;28;19927;-70
2023/10/19 03:01:50;;;;;;;;;;;13.40;99.90;;;;;;8419952;28;19924;-70
2023/10/19 03:05:54;;;;;;;;;;;13.50;99.90;;;;;;8419351;28;19932;-70
2023/10/19 03:09:56;;;;;;;;;;;13.50;99.90;;;;;;8394745;28;19924;-70
2023/10/19 03:13:58;;;;;;;;;;;13.50;99.90;;;;;;8414456;28;19982;-70
2023/10/19 03:18:01;;;;;;;;;;;13.50;99.90;;;;;;8424268;28;19924;-70
2023/10/19 03:22:05;;;;;;;;;;;13.60;99.90;;;;;;8409012;28;20269;-70
2023/10/19 03:30:28;;;;;;;;;;;13.60;99.90;;;;;;8418540;28;20268;-70
2023/10/19 03:34:32;;;;;;;;;;;13.70;99.90;;;;;;8393165;28;19931;-70
2023/10/19 03:38:37;;;;;;;;;;;13.70;99.90;;;;;;8423225;28;19924;-70
2023/10/19 03:42:41;;;;;;;;;;;13.70;99.90;;;;;;8408805;28;19925;-70
2023/10/19 03:46:52;;;;;;;;;;;13.70;99.90;;;;;;8418366;28;19931;-70
2023/10/19 03:50:55;;;;;;;;;;;13.80;99.90;;;;;;8389068;28;19940;-70
2023/10/19 03:54:57;;;;;;;;;;;13.80;99.90;;;;;;8418220;28;19924;-70
2023/10/19 03:59:00;;;;;;;;;;;13.90;99.90;;;;;;8422331;28;19928;-70
2023/10/19 04:03:02;;;;;;;;;;;13.90;99.90;;;;;;8414230;28;19979;-70
2023/10/19 04:07:11;;;;;;;;;;;14.00;99.90;;;;;;8399963;28;19963;-70
2023/10/19 04:11:21;;;;;;;;;;;14.00;99.90;;;;;;8407403;28;20371;-69
2023/10/19 04:15:25;;;;;;;;;;;14.10;99.90;;;;;;8422072;28;20082;-69
2023/10/19 04:19:28;;;;;;;;;;;14.10;99.90;;;;;;8403658;28;19982;-70
2023/10/19 04:23:34;;;;;;;;;;;14.10;99.90;;;;;;8411772;28;19931;-70
2023/10/19 04:27:36;;;;;;;;;;;14.20;99.90;;;;;;8410178;28;19932;-70
2023/10/19 04:31:48;;;;;;;;;;;14.20;99.90;;;;;;8409363;28;19931;-70
2023/10/19 04:35:55;;;;;;;;;;;14.10;99.90;;;;;;8420199;28;19967;-70
2023/10/19 04:39:57;;;;;;;;;;;14.10;99.90;;;;;;8421249;28;20280;-70
2023/10/19 04:44:00;;;;;;;;;;;14.10;99.90;;;;;;8428952;28;19928;-69
2023/10/19 04:48:04;;;;;;;;;;;14.10;99.90;;;;;;8424513;28;19932;-70
2023/10/19 04:52:06;;;;;;;;;;;14.10;99.90;;;;;;8416682;28;19924;-70
2023/10/19 04:56:08;;;;;;;;;;;14.20;99.90;;;;;;8428962;28;19931;-70
2023/10/19 05:00:14;;;;;;;;;;;14.20;99.90;;;;;;8418181;28;19928;-70
2023/10/19 05:04:17;;;;;;;;;;;14.20;99.90;;;;;;8419295;28;19973;-70
2023/10/19 05:08:18;;;;;;;;;;;14.20;99.90;;;;;;8423856;28;19928;-70
2023/10/19 05:12:21;;;;;;;;;;;14.20;99.90;;;;;;8396436;28;19955;-70
2023/10/19 05:16:23;;;;;;;;;;;14.20;99.90;;;;;;8412137;28;19932;-70
2023/10/19 05:20:25;;;;;;;;;;;14.20;99.90;;;;;;8415296;28;19967;-70
2023/10/19 05:24:27;;;;;;;;;;;14.20;99.90;;;;;;8409344;28;19925;-69
2023/10/19 05:28:29;;;;;;;;;;;14.20;99.90;;;;;;8390524;28;19924;-69
2023/10/19 05:32:31;;;;;;;;;;;14.20;99.90;;;;;;8381449;28;19924;-70
2023/10/19 05:36:32;;;;;;;;;;;14.30;99.90;;;;;;8383913;28;20410;-70
2023/10/19 05:40:35;;;;;;;;;;;14.30;99.90;;;;;;8395305;28;19928;-70
2023/10/19 05:44:37;;;;;;;;;;;14.30;99.90;;;;;;8398069;28;20391;-70
2023/10/19 05:48:39;;;;;;;;;;;14.30;99.90;;;;;;8407417;28;19979;-70
2023/10/19 05:52:42;;;;;;;;;;;14.30;99.90;;;;;;8394225;28;19963;-70
2023/10/19 05:56:43;;;;;;;;;;;14.30;99.90;;;;;;8397341;28;19928;-70
2023/10/19 06:00:45;;;;;;;;;;;14.40;99.90;;;;;;8398309;28;19924;-70
2023/10/19 06:20:33;;;;;;;;;;;14.40;99.90;;;;;;8396771;28;20406;-70
2023/10/19 06:24:35;;;;;;;;;;;14.40;99.90;;;;;;8395602;28;19928;-70
2023/10/19 06:28:38;;;;;;;;;;;14.40;99.90;;;;;;8409504;28;19932;-70
2023/10/19 06:32:40;;;;;;;;;;;14.40;99.90;;;;;;8416097;28;19946;-70
2023/10/19 06:36:42;;;;;;;;;;;14.40;99.90;;;;;;8405229;28;19970;-70
2023/10/19 06:40:43;;;;;;;;;;;14.50;99.90;;;;;;8410866;28;19931;-69
2023/10/19 06:44:45;;;;;;;;;;;14.40;99.90;;;;;;8387847;28;19924;-70
2023/10/19 06:48:47;;;;;;;;;;;14.50;99.90;;;;;;8395914;28;19985;-70
2023/10/19 06:52:48;;;;;;;;;;;14.40;99.90;;;;;;8409221;28;19924;-70
2023/10/19 06:56:50;;;;;;;;;;;14.40;99.90;;;;;;8404718;28;20372;-70
2023/10/19 07:00:59;;;;;;;;;;;14.40;99.90;;;;;;8409675;28;20425;-70
2023/10/19 07:05:02;;;;;;;;;;;14.50;99.90;;;;;;8401178;28;19986;-70
2023/10/19 07:09:05;;;;;;;;;;;14.50;99.90;;;;;;8399429;28;19983;-70
2023/10/19 07:13:08;;;;;;;;;;;14.50;99.90;;;;;;8427779;28;20259;-70
2023/10/19 07:17:10;;;;;;;;;;;14.50;99.90;;;;;;8404251;28;20380;-70
2023/10/19 07:21:14;;;;;;;;;;;14.50;99.90;;;;;;8418825;28;20370;-70
2023/10/19 07:25:15;;;;;;;;;;;14.50;99.90;;;;;;8406383;28;19963;-70
2023/10/19 07:29:18;;;;;;;;;;;14.50;99.90;;;;;;8402008;28;20585;-70
2023/10/19 07:33:21;;;;;;;;;;;14.60;99.90;;;;;;8407486;28;19982;-70
2023/10/19 07:37:22;;;;;;;;;;;14.60;99.90;;;;;;8405763;28;19936;-70
2023/10/19 07:41:24;;;;;;;;;;;14.70;99.90;;;;;;8407284;28;19929;-70
2023/10/19 07:45:25;;;;;;;;;;;14.70;99.90;;;;;;8413248;28;19931;-70
2023/10/19 07:49:27;;;;;;;;;;;14.70;99.90;;;;;;8399141;28;19928;-70
2023/10/19 07:53:30;;;;;;;;;;;14.80;99.90;;;;;;8426583;28;20743;-70
2023/10/19 07:57:31;;;;;;;;;;;14.80;99.90;;;;;;8419424;28;20031;-70
2023/10/19 08:01:33;;;;;;;;;;;14.80;99.90;;;;;;8404641;28;19931;-70
2023/10/19 08:05:35;;;;;;;;;;;14.80;99.90;;;;;;8425355;28;19928;-70
2023/10/19 08:09:38;;;;;;;;;;;14.80;99.90;;;;;;8396957;28;19931;-70
2023/10/19 08:13:39;;;;;;;;;;;14.90;99.90;;;;;;8413428;28;19932;-70
2023/10/19 08:17:42;;;;;;;;;;;14.90;99.90;;;;;;8385330;28;19928;-70
2023/10/19 08:21:44;;;;;;;;;;;14.90;99.90;;;;;;8367806;28;19928;-70
2023/10/19 08:25:46;;;;;;;;;;;15.00;99.90;;;;;;8424399;28;19931;-70
2023/10/19 08:29:57;;;;;;;;;;;15.00;99.90;;;;;;8408594;28;20197;-70
2023/10/19 08:33:58;;;;;;;;;;;15.00;99.90;;;;;;8402624;28;19925;-70
2023/10/19 08:38:00;;;;;;;;;;;15.10;99.90;;;;;;8415938;28;20593;-69
2023/10/19 08:42:04;;;;;;;;;;;15.10;99.90;;;;;;8400388;28;19931;-70
2023/10/19 08:46:06;;;;;;;;;;;15.10;99.90;;;;;;8403761;28;19924;-70
2023/10/19 08:50:08;;;;;;;;;;;15.20;99.90;;;;;;8410943;28;20333;-70
2023/10/19 08:54:10;;;;;;;;;;;15.30;99.90;;;;;;8404975;28;19963;-70
2023/10/19 08:58:13;;;;;;;;;;;15.30;99.90;;;;;;8407682;28;19943;-70
2023/10/19 09:02:14;;;;;;;;;;;15.40;99.90;;;;;;8407329;28;19925;-70
2023/10/19 09:06:18;;;;;;;;;;;15.50;99.90;;;;;;8398901;28;19924;-70
2023/10/19 09:10:19;;;;;;;;;;;15.60;99.90;;;;;;8399604;28;19931;-70
2023/10/19 09:14:33;;;;;;;;;;;15.80;99.90;;;;;;8400364;28;20315;-70
2023/10/19 09:18:35;;;;;;;;;;;15.90;99.90;;;;;;8378749;28;19932;-70
2023/10/19 09:22:36;;;;;;;;;;;16.00;99.90;;;;;;8388026;28;19950;-70
2023/10/19 09:26:39;;;;;;;;;;;16.00;99.90;;;;;;8386492;28;19928;-70
2023/10/19 09:30:42;;;;;;;;;;;16.00;99.90;;;;;;8371088;28;19928;-70
2023/10/19 09:34:44;;;;;;;;;;;16.00;99.90;;;;;;8390345;28;19978;-70
2023/10/19 09:38:51;;;;;;;;;;;16.10;99.90;;;;;;8384873;28;19931;-70
2023/10/19 09:42:53;;;;;;;;;;;16.30;99.90;;;;;;8385731;28;24444;-70
2023/10/19 09:46:56;;;;;;;;;;;16.50;99.90;;;;;;8388187;28;19928;-70
2023/10/19 09:50:58;;;;;;;;;;;16.50;99.90;;;;;;8384026;28;20156;-70
2023/10/19 09:55:19;;;;;;;;;;;16.60;99.90;;;;;;8387344;28;20359;-70
2023/10/19 09:59:31;;;;;;;;;;;16.70;99.90;;;;;;8386824;28;19987;-70
2023/10/19 10:03:43;;;;;;;;;;;16.80;99.90;;;;;;8384733;28;19924;-70
2023/10/19 10:07:44;;;;;;;;;;;16.80;99.90;;;;;;8387042;28;20392;-71
2023/10/19 10:11:52;;;;;;;;;;;16.70;99.90;;;;;;8383148;28;19928;-70
2023/10/19 10:15:54;;;;;;;;;;;16.70;99.90;;;;;;8388068;28;24546;-70
2023/10/19 10:20:17;;;;;;;;;;;16.70;99.90;;;;;;8392251;28;19928;-70
2023/10/19 10:24:19;;;;;;;;;;;16.70;99.90;;;;;;8388215;28;20371;-70
2023/10/19 10:28:23;;;;;;;;;;;16.70;99.90;;;;;;8394769;28;20726;-70
2023/10/19 10:32:44;;;;;;;;;;;16.80;99.90;;;;;;8388303;28;19925;-70
2023/10/19 10:37:00;;;;;;;;;;;16.80;99.90;;;;;;8386106;28;20347;-70
2023/10/19 10:41:02;;;;;;;;;;;16.80;99.90;;;;;;8388636;28;19971;-70
2023/10/19 10:45:05;;;;;;;;;;;16.90;99.90;;;;;;8367693;28;19932;-70
2023/10/19 10:49:10;;;;;;;;;;;16.90;99.90;;;;;;8385669;28;19940;-70
2023/10/19 10:53:12;;;;;;;;;;;16.90;99.90;;;;;;8394677;28;20427;-70
2023/10/19 10:57:14;;;;;;;;;;;16.90;99.90;;;;;;8389238;28;19944;-70
2023/10/19 11:01:29;;;;;;;;;;;17.00;99.90;;;;;;8389686;28;20295;-70
2023/10/19 11:05:33;;;;;;;;;;;17.10;99.90;;;;;;8383583;28;20027;-70
2023/10/19 11:09:44;;;;;;;;;;;17.20;99.90;;;;;;8383230;28;20004;-70
2023/10/19 11:13:46;;;;;;;;;;;17.40;99.90;;;;;;8387021;28;19970;-71
2023/10/19 11:17:48;;;;;;;;;;;17.60;99.90;;;;;;8391207;28;19931;-70
2023/10/19 11:21:54;;;;;;;;;;;17.80;99.90;;;;;;8395607;28;19932;-70
2023/10/19 11:25:59;;;;;;;;;;;17.90;99.90;;;;;;8393400;28;20342;-70
2023/10/19 11:30:07;;;;;;;;;;;17.90;99.90;;;;;;8376298;28;19965;-70
2023/10/19 11:34:09;;;;;;;;;;;18.00;99.90;;;;;;8394208;28;19925;-70
2023/10/19 11:38:11;;;;;;;;;;;18.20;99.90;;;;;;8393655;28;19978;-70
2023/10/19 11:42:13;;;;;;;;;;;18.50;99.90;;;;;;8411027;28;19955;-71
2023/10/19 11:46:16;;;;;;;;;;;18.60;99.90;;;;;;8389784;28;19943;-70
2023/10/19 11:50:18;;;;;;;;;;;18.50;99.90;;;;;;8391615;28;19932;-70
2023/10/19 11:54:20;;;;;;;;;;;18.40;99.90;;;;;;8381389;28;19924;-70
2023/10/19 11:58:22;;;;;;;;;;;18.30;99.90;;;;;;8390003;28;19932;-71
2023/10/19 12:02:24;;;;;;;;;;;18.30;99.90;;;;;;8389057;28;19974;-70
2023/10/19 12:06:26;;;;;;;;;;;18.20;99.90;;;;;;8389212;28;19924;-70
2023/10/19 12:10:36;;;;;;;;;;;18.10;99.90;;;;;;8390828;28;20280;-71
2023/10/19 12:14:38;;;;;;;;;;;18.10;99.90;;;;;;8394315;28;20426;-70
2023/10/19 12:18:41;;;;;;;;;;;18.10;99.90;;;;;;8397912;28;19932;-70
2023/10/19 12:22:43;;;;;;;;;;;18.00;99.90;;;;;;8392397;28;19975;-71
2023/10/19 12:26:46;;;;;;;;;;;18.00;99.90;;;;;;8396417;28;19931;-71
2023/10/19 12:30:48;;;;;;;;;;;17.90;99.90;;;;;;8404544;28;20401;-70
2023/10/19 12:34:53;;;;;;;;;;;17.90;99.90;;;;;;8373027;28;19985;-71
2023/10/19 12:38:55;;;;;;;;;;;17.90;99.90;;;;;;8400181;28;19925;-70
2023/10/19 12:42:57;;;;;;;;;;;17.90;99.90;;;;;;8392973;28;19932;-70
2023/10/19 12:46:59;;;;;;;;;;;17.90;99.90;;;;;;8373715;28;19928;-71
2023/10/19 12:51:06;;;;;;;;;;;17.80;99.90;;;;;;8394077;28;20279;-70
2023/10/19 12:55:08;;;;;;;;;;;17.80;99.90;;;;;;8390219;28;19935;-70
2023/10/19 12:59:11;;;;;;;;;;;17.70;99.90;;;;;;8375448;28;20346;-70
2023/10/19 13:03:16;;;;;;;;;;;17.70;99.90;;;;;;8391401;28;19928;-71
2023/10/19 13:07:17;;;;;;;;;;;17.70;99.90;;;;;;8375321;28;19978;-69
2023/10/19 13:11:19;;;;;;;;;;;17.60;99.90;;;;;;8385613;28;19924;-71
2023/10/19 13:15:21;;;;;;;;;;;17.60;99.90;;;;;;8374592;28;19938;-70
2023/10/19 13:19:26;;;;;;;;;;;17.50;99.90;;;;;;8375079;28;20333;-70
2023/10/19 13:23:28;;;;;;;;;;;17.50;99.90;;;;;;8377372;28;19931;-70
2023/10/19 13:27:31;;;;;;;;;;;17.40;99.90;;;;;;8398003;28;20290;-71
2023/10/19 13:31:34;;;;;;;;;;;17.40;99.90;;;;;;8396156;28;19981;-71
2023/10/19 13:35:37;;;;;;;;;;;17.30;99.90;;;;;;8387485;28;20321;-70
2023/10/19 13:39:39;;;;;;;;;;;17.30;99.90;;;;;;8368659;28;19928;-71
2023/10/19 13:43:44;;;;;;;;;;;17.30;99.90;;;;;;8392071;28;20330;-70
2023/10/19 13:47:46;;;;;;;;;;;17.30;99.90;;;;;;8391672;28;19924;-70
2023/10/19 13:51:47;;;;;;;;;;;17.30;99.90;;;;;;8368498;28;19969;-71
2023/10/19 13:55:50;;;;;;;;;;;17.30;99.90;;;;;;8394866;28;20292;-70
2023/10/19 13:59:53;;;;;;;;;;;17.30;99.90;;;;;;8373191;28;19939;-71
2023/10/19 14:03:54;;;;;;;;;;;17.30;99.90;;;;;;8393385;28;19924;-71
2023/10/19 14:07:56;;;;;;;;;;;17.30;99.90;;;;;;8384349;28;19924;-70
2023/10/19 14:11:58;;;;;;;;;;;17.30;99.90;;;;;;8393091;28;19937;-70
2023/10/19 14:16:04;;;;;;;;;;;17.30;99.90;;;;;;8386625;28;19929;-70
2023/10/19 14:20:06;;;;;;;;;;;17.20;99.90;;;;;;8396373;28;19939;-70
2023/10/19 14:24:08;;;;;;;;;;;17.20;99.90;;;;;;8372156;28;19924;-70
2023/10/19 14:28:10;;;;;;;;;;;17.20;99.90;;;;;;8392839;28;19928;-70
2023/10/19 14:32:12;;;;;;;;;;;17.20;99.90;;;;;;8391302;28;19931;-70
2023/10/19 14:36:14;;;;;;;;;;;17.20;99.90;;;;;;8389969;28;20002;-70
2023/10/19 14:40:17;;;;;;;;;;;17.10;99.90;;;;;;8381791;28;19925;-70
2023/10/19 14:44:18;;;;;;;;;;;17.10;99.90;;;;;;8379716;28;19972;-70
2023/10/19 14:48:21;;;;;;;;;;;17.10;99.90;;;;;;8379667;28;19929;-69
2023/10/19 14:52:23;;;;;;;;;;;17.10;99.90;;;;;;8392334;28;19971;-70
2023/10/19 14:56:26;;;;;;;;;;;17.00;99.90;;;;;;8383385;28;19998;-70
2023/10/19 15:04:38;;;;;;;;;;;17.00;99.90;;;;;;8388373;28;19933;-69
2023/10/19 15:08:39;;;;;;;;;;;17.00;99.90;;;;;;8370398;28;19932;-70
2023/10/19 15:12:41;;;;;;;;;;;17.00;99.90;;;;;;8382779;28;19960;-70
2023/10/19 15:16:43;;;;;;;;;;;17.00;99.90;;;;;;8386772;28;19928;-70
2023/10/19 15:20:46;;;;;;;;;;;16.90;99.90;;;;;;8392855;28;20667;-70
2023/10/19 15:24:51;;;;;;;;;;;17.00;99.90;;;;;;8391581;28;19925;-69
2023/10/19 15:28:53;;;;;;;;;;;17.00;99.90;;;;;;8402289;28;20011;-70
2023/10/19 15:32:54;;;;;;;;;;;17.00;99.90;;;;;;8387711;28;20050;-71
2023/10/19 15:36:56;;;;;;;;;;;17.00;99.90;;;;;;8396557;28;19925;-71
2023/10/19 15:40:58;;;;;;;;;;;17.30;99.90;;;;;;8386899;28;19946;-70
2023/10/19 15:45:01;;;;;;;;;;;17.60;99.90;;;;;;8388261;28;19962;-71
2023/10/19 15:49:02;;;;;;;;;;;17.90;99.90;;;;;;8386671;28;19925;-71
2023/10/19 15:53:04;;;;;;;;;;;18.00;99.90;;;;;;8384156;28;19996;-71
2023/10/19 15:57:06;;;;;;;;;;;17.90;99.90;;;;;;8383458;28;19970;-71
2023/10/19 16:01:09;;;;;;;;;;;17.80;99.90;;;;;;8370491;28;19929;-70
2023/10/19 16:05:15;;;;;;;;;;;17.70;99.90;;;;;;8371498;28;19961;-70
2023/10/19 16:09:19;;;;;;;;;;;17.50;99.90;;;;;;8393098;28;19978;-71
2023/10/19 16:13:21;;;;;;;;;;;17.40;99.90;;;;;;8388270;28;19962;-71
2023/10/19 16:17:22;;;;;;;;;;;17.30;99.90;;;;;;8386519;28;19966;-71
2023/10/19 16:21:25;;;;;;;;;;;17.20;99.90;;;;;;8387601;28;19932;-70
2023/10/19 16:25:27;;;;;;;;;;;17.10;99.90;;;;;;8388536;28;19929;-71
2023/10/19 16:29:28;;;;;;;;;;;17.10;99.90;;;;;;8392111;28;19928;-70
2023/10/19 16:33:30;;;;;;;;;;;17.00;99.90;;;;;;8387271;28;19932;-71
2023/10/19 16:37:32;;;;;;;;;;;16.90;99.90;;;;;;8392584;28;19924;-71
2023/10/19 16:41:34;;;;;;;;;;;16.90;99.90;;;;;;8390334;28;20052;-71
2023/10/19 16:45:36;;;;;;;;;;;16.80;99.90;;;;;;8374290;28;19928;-71
2023/10/19 16:49:39;;;;;;;;;;;16.80;99.90;;;;;;8390285;28;19931;-71
2023/10/19 16:53:40;;;;;;;;;;;16.80;99.90;;;;;;8391875;28;19982;-71
2023/10/19 16:57:42;;;;;;;;;;;16.70;99.90;;;;;;8390495;28;19936;-71
2023/10/19 17:01:44;;;;;;;;;;;16.70;99.90;;;;;;8369234;28;19928;-71
2023/10/19 17:05:46;;;;;;;;;;;16.80;99.90;;;;;;8372089;28;19933;-71
2023/10/19 17:09:47;;;;;;;;;;;16.70;99.90;;;;;;8383420;28;19955;-71
2023/10/19 17:13:55;;;;;;;;;;;16.70;99.90;;;;;;8388356;28;19966;-71
2023/10/19 17:17:57;;;;;;;;;;;16.70;99.90;;;;;;8384560;28;20368;-71
2023/10/19 17:21:59;;;;;;;;;;;16.70;99.90;;;;;;8369861;28;19930;-71
2023/10/19 17:26:01;;;;;;;;;;;16.70;99.90;;;;;;8391300;28;20379;-71
2023/10/19 17:30:05;;;;;;;;;;;16.70;99.90;;;;;;8389733;28;19928;-71
2023/10/19 17:34:06;;;;;;;;;;;16.70;99.90;;;;;;8390335;28;19963;-71
2023/10/19 17:38:09;;;;;;;;;;;16.70;99.90;;;;;;8388337;28;20371;-71
2023/10/19 17:42:10;;;;;;;;;;;16.70;99.90;;;;;;8391028;28;19928;-71
2023/10/19 17:46:13;;;;;;;;;;;16.70;99.90;;;;;;8389516;28;19931;-71
2023/10/19 17:50:16;;;;;;;;;;;16.70;99.90;;;;;;8370438;28;19928;-71
2023/10/19 17:54:19;;;;;;;;;;;16.70;99.90;;;;;;8387753;28;19924;-71
2023/10/19 17:58:20;;;;;;;;;;;16.60;99.90;;;;;;8387911;28;19932;-71
2023/10/19 18:02:22;;;;;;;;;;;16.60;99.90;;;;;;8371848;28;19933;-71
2023/10/19 18:06:24;;;;;;;;;;;16.60;99.90;;;;;;8388951;28;19924;-71
2023/10/19 18:10:29;;;;;;;;;;;16.60;99.90;;;;;;8387145;28;19924;-71
2023/10/19 18:14:31;;;;;;;;;;;16.60;99.90;;;;;;8377250;28;20020;-71
2023/10/19 18:18:32;;;;;;;;;;;16.50;99.90;;;;;;8388947;28;20417;-71
2023/10/19 18:22:35;;;;;;;;;;;16.50;99.90;;;;;;8387809;28;20261;-71
2023/10/19 18:26:37;;;;;;;;;;;16.50;99.90;;;;;;8379663;28;20003;-71
2023/10/19 18:30:40;;;;;;;;;;;16.50;99.90;;;;;;8371411;28;19928;-71
2023/10/19 18:34:42;;;;;;;;;;;16.40;99.90;;;;;;8390294;28;20575;-71
2023/10/19 18:38:44;;;;;;;;;;;16.40;99.90;;;;;;8386714;28;19935;-71
2023/10/19 18:42:45;;;;;;;;;;;16.40;99.90;;;;;;8387970;28;19952;-71
2023/10/19 18:46:47;;;;;;;;;;;16.40;99.90;;;;;;8401228;28;19929;-71
2023/10/19 18:50:56;;;;;;;;;;;16.30;99.90;;;;;;8385387;28;19971;-71
2023/10/19 18:54:58;;;;;;;;;;;16.30;99.90;;;;;;8382528;28;19924;-71
2023/10/19 18:59:01;;;;;;;;;;;16.30;99.90;;;;;;8387525;28;20391;-71
2023/10/19 19:03:02;;;;;;;;;;;16.30;99.90;;;;;;8384374;28;19932;-71
2023/10/19 19:07:04;;;;;;;;;;;16.20;99.90;;;;;;8387151;28;19928;-71
2023/10/19 19:11:10;;;;;;;;;;;16.20;99.90;;;;;;8387223;28;20362;-71
2023/10/19 19:15:13;;;;;;;;;;;16.20;99.90;;;;;;8369838;28;19932;-70
2023/10/19 19:19:15;;;;;;;;;;;16.20;99.90;;;;;;8393704;28;19932;-71
2023/10/19 19:23:16;;;;;;;;;;;16.10;99.90;;;;;;8397771;28;20405;-71
2023/10/19 19:27:18;;;;;;;;;;;16.10;99.90;;;;;;8386262;28;19934;-71
2023/10/19 19:31:21;;;;;;;;;;;16.10;99.90;;;;;;8387712;28;19929;-70
2023/10/19 19:35:23;;;;;;;;;;;16.10;99.90;;;;;;8381028;28;19990;-71
2023/10/19 19:39:24;;;;;;;;;;;16.00;99.90;;;;;;8388440;28;19966;-71
2023/10/19 19:43:26;;;;;;;;;;;16.00;99.90;;;;;;8388714;28;19924;-71
2023/10/19 19:52:31;;;;;;;;;;;16.00;99.90;;;;;;8393012;28;19924;-71
2023/10/19 19:56:32;;;;;;;;;;;15.90;99.90;;;;;;8406026;28;19964;-70
2023/10/19 20:00:35;;;;;;;;;;;16.00;99.90;;;;;;8399742;28;20355;-71
2023/10/19 20:04:37;;;;;;;;;;;15.90;99.90;;;;;;8390772;28;19959;-71
2023/10/19 20:08:39;;;;;;;;;;;15.90;99.90;;;;;;8374752;28;19981;-71
2023/10/19 20:12:44;;;;;;;;;;;16.00;99.90;;;;;;8369244;28;19924;-70
2023/10/19 20:16:46;;;;;;;;;;;15.90;99.90;;;;;;8395618;28;19924;-70
2023/10/19 20:20:48;;;;;;;;;;;15.90;99.90;;;;;;8387399;28;19974;-71
2023/10/19 20:24:50;;;;;;;;;;;15.90;99.90;;;;;;8405777;28;20303;-70
2023/10/19 20:28:51;;;;;;;;;;;15.90;99.90;;;;;;8396392;28;20217;-71
2023/10/19 20:32:53;;;;;;;;;;;15.90;99.90;;;;;;8388210;28;20287;-70
2023/10/19 20:36:55;;;;;;;;;;;15.90;99.90;;;;;;8372216;28;20291;-70
2023/10/19 20:40:56;;;;;;;;;;;15.90;99.90;;;;;;8387277;28;20399;-70
2023/10/19 20:44:58;;;;;;;;;;;15.80;99.90;;;;;;8387453;28;19924;-70
2023/10/19 20:49:00;;;;;;;;;;;15.80;99.90;;;;;;8370101;28;19929;-71
2023/10/19 20:53:03;;;;;;;;;;;15.80;99.90;;;;;;8385707;28;19929;-70
2023/10/19 20:57:04;;;;;;;;;;;15.80;99.90;;;;;;8376924;28;19932;-70
2023/10/19 21:01:08;;;;;;;;;;;15.80;99.90;;;;;;8397736;28;19954;-71
2023/10/19 21:05:10;;;;;;;;;;;15.80;99.90;;;;;;8413243;28;19935;-71
2023/10/19 21:09:12;;;;;;;;;;;15.80;99.90;;;;;;8410034;28;20427;-70
2023/10/19 21:13:14;;;;;;;;;;;15.80;99.90;;;;;;8391900;28;19992;-70
2023/10/19 21:17:16;;;;;;;;;;;15.80;99.90;;;;;;8420529;28;19932;-70
2023/10/19 21:21:17;;;;;;;;;;;15.70;99.90;;;;;;8417976;28;19931;-71
2023/10/19 21:25:19;;;;;;;;;;;15.70;99.90;;;;;;8407311;28;19925;-70
2023/10/19 21:29:23;;;;;;;;;;;15.70;99.90;;;;;;8416481;28;19924;-71
2023/10/19 21:33:25;;;;;;;;;;;15.70;99.90;;;;;;8406619;28;19924;-70
2023/10/19 21:37:26;;;;;;;;;;;15.80;99.90;;;;;;8437950;28;20410;-71
2023/10/19 21:46:32;;;;;;;;;;;15.80;99.90;;;;;;8424158;28;20394;-71
2023/10/19 21:50:34;;;;;;;;;;;15.80;99.90;;;;;;8420123;28;19932;-70
2023/10/19 21:54:35;;;;;;;;;;;15.80;99.90;;;;;;8415824;28;19935;-70
2023/10/19 21:58:37;;;;;;;;;;;15.80;99.90;;;;;;8426763;28;19932;-71
2023/10/19 22:02:39;;;;;;;;;;;15.80;99.90;;;;;;8401040;28;20398;-70
2023/10/19 22:06:49;;;;;;;;;;;15.80;99.90;;;;;;8427676;28;19931;-70
2023/10/19 22:10:52;;;;;;;;;;;15.80;99.90;;;;;;8409105;28;20245;-70
2023/10/19 22:14:53;;;;;;;;;;;15.70;99.90;;;;;;8409816;28;19924;-70
2023/10/19 22:18:57;;;;;;;;;;;15.70;99.90;;;;;;8416309;28;19986;-70
2023/10/19 22:22:59;;;;;;;;;;;15.80;99.90;;;;;;8413257;28;19924;-70
2023/10/19 22:27:01;;;;;;;;;;;15.80;99.90;;;;;;8426426;28;19925;-70
2023/10/19 22:31:03;;;;;;;;;;;15.80;99.90;;;;;;8418384;28;19931;-71
2023/10/19 22:35:09;;;;;;;;;;;15.80;99.90;;;;;;8424151;28;19924;-70
2023/10/19 22:39:11;;;;;;;;;;;15.80;99.90;;;;;;8412969;28;20320;-71
2023/10/19 22:43:12;;;;;;;;;;;15.80;99.90;;;;;;8418589;28;19962;-70
2023/10/19 22:47:15;;;;;;;;;;;15.80;99.90;;;;;;8425727;28;19932;-70
2023/10/19 22:51:17;;;;;;;;;;;15.80;99.90;;;;;;8414608;28;19924;-70
2023/10/19 22:55:18;;;;;;;;;;;15.80;99.90;;;;;;8420875;28;19924;-71
2023/10/19 22:59:20;;;;;;;;;;;15.80;99.90;;;;;;8414358;28;19931;-71
2023/10/19 23:03:22;;;;;;;;;;;15.80;99.90;;;;;;8415454;28;19985;-70
2023/10/19 23:07:23;;;;;;;;;;;15.80;99.90;;;;;;8423088;28;19924;-70
2023/10/19 23:11:29;;;;;;;;;;;15.80;99.90;;;;;;8414411;28;20318;-70
2023/10/19 23:35:45;;;;;;;;;;;15.80;99.90;;;;;;8426544;28;19928;-70
2023/10/19 23:39:47;;;;;;;;;;;15.80;99.90;;;;;;8427569;28;19925;-70
2023/10/19 23:43:48;;;;;;;;;;;15.80;99.90;;;;;;8419520;28;19998;-70
2023/10/19 23:47:50;;;;;;;;;;;15.70;99.90;;;;;;8427652;28;19924;-70
2023/10/19 23:51:52;;;;;;;;;;;15.70;99.90;;;;;;8421755;28;19930;-70
2023/10/19 23:55:53;;;;;;;;;;;15.70;99.90;;;;;;8403562;28;19977;-70
2023/10/19 23:59:57;;;;;;;;;;;15.70;99.90;;;;;;8426616;28;19974;-70
